createdAt,value
2018-09-26T00:00:22.959Z,6.90
2018-09-26T00:02:56.873Z,6.90
2018-09-26T00:05:25.158Z,6.90
2018-09-26T00:07:53.414Z,6.80
2018-09-26T00:10:21.632Z,6.80
2018-09-26T00:12:49.890Z,6.80
2018-09-26T00:15:18.116Z,6.70
2018-09-26T00:17:46.326Z,6.70
2018-09-26T00:20:14.568Z,6.70
2018-09-26T00:22:42.779Z,6.60
2018-09-26T00:25:11.291Z,6.60
2018-09-26T00:27:39.506Z,6.60
2018-09-26T00:30:07.775Z,6.60
2018-09-26T00:32:35.999Z,6.60
2018-09-26T00:35:04.309Z,6.70
2018-09-26T00:37:32.564Z,6.70
2018-09-26T00:40:00.839Z,6.60
2018-09-26T00:42:29.106Z,6.70
2018-09-26T00:44:57.365Z,6.70
2018-09-26T00:47:25.606Z,6.80
2018-09-26T00:49:53.989Z,6.70
2018-09-26T00:52:22.240Z,6.70
2018-09-26T00:54:50.509Z,6.70
2018-09-26T00:57:18.715Z,6.80
2018-09-26T00:59:46.962Z,6.80
2018-09-26T01:02:15.187Z,6.80
2018-09-26T01:04:43.416Z,6.90
2018-09-26T01:07:11.648Z,6.90
2018-09-26T01:09:39.894Z,6.90
2018-09-26T01:12:08.101Z,6.90
2018-09-26T01:14:36.369Z,7.00
2018-09-26T01:17:04.610Z,6.90
2018-09-26T01:19:32.953Z,6.90
2018-09-26T01:22:01.220Z,6.90
2018-09-26T01:24:29.492Z,6.90
2018-09-26T01:26:57.726Z,6.80
2018-09-26T01:29:25.939Z,6.80
2018-09-26T01:31:54.335Z,6.70
2018-09-26T01:34:22.591Z,6.70
2018-09-26T01:36:50.798Z,6.70
2018-09-26T01:39:19.037Z,6.80
2018-09-26T01:41:47.312Z,6.70
2018-09-26T01:44:15.710Z,6.70
2018-09-26T01:46:43.965Z,6.60
2018-09-26T01:49:12.235Z,6.60
2018-09-26T01:51:40.474Z,6.70
2018-09-26T01:54:08.687Z,6.60
2018-09-26T01:56:36.958Z,6.60
2018-09-26T01:59:05.205Z,6.40
2018-09-26T02:01:33.429Z,6.10
2018-09-26T02:04:01.669Z,6.10
2018-09-26T02:06:29.933Z,6.00
2018-09-26T02:08:58.205Z,5.90
2018-09-26T02:11:26.465Z,5.90
2018-09-26T02:13:54.717Z,6.00
2018-09-26T02:16:22.930Z,6.00
2018-09-26T02:18:51.160Z,5.90
2018-09-26T02:21:19.366Z,6.00
2018-09-26T02:23:47.652Z,6.00
2018-09-26T02:26:15.809Z,6.00
2018-09-26T02:28:44.046Z,5.90
2018-09-26T02:31:12.262Z,6.00
2018-09-26T02:33:40.504Z,6.10
2018-09-26T02:36:08.712Z,6.10
2018-09-26T02:38:36.971Z,6.10
2018-09-26T02:41:05.627Z,6.00
2018-09-26T02:43:33.848Z,5.90
2018-09-26T02:46:02.111Z,6.00
2018-09-26T02:48:35.858Z,6.10
2018-09-26T02:51:04.120Z,6.10
2018-09-26T02:53:32.394Z,6.20
2018-09-26T02:56:00.628Z,6.10
2018-09-26T02:58:28.882Z,5.90
2018-09-26T03:00:57.091Z,5.90
2018-09-26T03:03:25.399Z,5.90
2018-09-26T03:05:53.694Z,5.90
2018-09-26T03:08:21.910Z,5.90
2018-09-26T03:10:50.238Z,6.00
2018-09-26T03:13:18.408Z,5.80
2018-09-26T03:15:46.668Z,5.60
2018-09-26T03:18:15.156Z,5.40
2018-09-26T03:20:43.406Z,5.30
2018-09-26T03:23:11.618Z,5.10
2018-09-26T03:25:39.938Z,5.10
2018-09-26T03:28:08.176Z,5.20
2018-09-26T03:30:36.541Z,5.30
2018-09-26T03:33:04.759Z,5.40
2018-09-26T03:35:33.020Z,5.50
2018-09-26T03:38:01.276Z,5.60
2018-09-26T03:40:29.504Z,5.60
2018-09-26T03:42:57.767Z,5.60
2018-09-26T03:45:26.039Z,5.60
2018-09-26T03:47:54.368Z,5.70
2018-09-26T03:50:22.645Z,5.70
2018-09-26T03:52:50.880Z,5.80
2018-09-26T03:55:19.144Z,5.70
2018-09-26T03:57:47.478Z,5.70
2018-09-26T04:00:15.712Z,5.60
2018-09-26T04:02:44.025Z,5.60
2018-09-26T04:05:12.666Z,5.70
2018-09-26T04:07:41.192Z,5.70
2018-09-26T04:10:09.518Z,5.70
2018-09-26T04:12:37.865Z,5.50
2018-09-26T04:15:06.073Z,5.30
2018-09-26T04:17:34.331Z,5.30
2018-09-26T04:20:02.628Z,5.20
2018-09-26T04:22:31.043Z,5.20
2018-09-26T04:24:59.332Z,5.20
2018-09-26T04:27:27.740Z,5.20
2018-09-26T04:29:56.219Z,5.20
2018-09-26T04:32:24.549Z,5.30
2018-09-26T04:34:52.922Z,5.40
2018-09-26T04:37:21.262Z,5.40
2018-09-26T04:39:49.649Z,5.40
2018-09-26T04:42:17.891Z,5.40
2018-09-26T04:44:46.093Z,5.50
2018-09-26T04:47:14.398Z,5.50
2018-09-26T04:49:42.654Z,5.60
2018-09-26T04:52:11.002Z,5.50
2018-09-26T04:54:39.264Z,5.50
2018-09-26T04:57:07.540Z,5.50
2018-09-26T04:59:36.322Z,5.60
2018-09-26T05:02:04.595Z,5.70
2018-09-26T05:04:32.910Z,5.60
2018-09-26T05:07:01.166Z,5.60
2018-09-26T05:09:29.526Z,5.50
2018-09-26T05:11:57.837Z,5.20
2018-09-26T05:14:26.103Z,5.10
2018-09-26T05:16:54.356Z,5.10
2018-09-26T05:19:22.655Z,5.10
2018-09-26T05:21:50.948Z,5.10
2018-09-26T05:24:19.211Z,5.10
2018-09-26T05:26:47.810Z,5.10
2018-09-26T05:29:16.033Z,5.00
2018-09-26T05:31:44.397Z,4.80
2018-09-26T05:34:12.654Z,4.70
2018-09-26T05:36:40.866Z,4.70
2018-09-26T05:39:11.189Z,4.70
2018-09-26T05:41:39.490Z,4.70
2018-09-26T05:44:07.794Z,4.60
2018-09-26T05:46:36.068Z,4.60
2018-09-26T05:49:04.656Z,4.50
2018-09-26T05:51:32.886Z,4.60
2018-09-26T05:54:01.156Z,4.70
2018-09-26T05:56:29.384Z,4.90
2018-09-26T05:58:58.135Z,5.00
2018-09-26T06:01:26.451Z,5.00
2018-09-26T06:03:54.798Z,5.00
2018-09-26T06:06:23.056Z,4.90
2018-09-26T06:08:51.287Z,4.90
2018-09-26T06:11:19.554Z,4.90
2018-09-26T06:13:48.468Z,4.90
2018-09-26T06:16:16.779Z,4.90
2018-09-26T06:18:45.041Z,5.00
2018-09-26T06:21:13.430Z,4.90
2018-09-26T06:23:41.748Z,5.00
2018-09-26T06:26:09.977Z,5.00
2018-09-26T06:28:38.247Z,5.20
2018-09-26T06:31:06.531Z,5.30
2018-09-26T06:33:34.793Z,5.50
2018-09-26T06:36:03.162Z,5.70
2018-09-26T06:38:31.502Z,6.00
2018-09-26T06:40:59.823Z,6.20
2018-09-26T06:43:28.039Z,6.40
2018-09-26T06:45:56.843Z,6.60
2018-09-26T06:48:25.122Z,6.90
2018-09-26T06:50:53.410Z,7.30
2018-09-26T06:53:21.667Z,7.60
2018-09-26T06:55:50.185Z,7.70
2018-09-26T06:58:18.429Z,7.70
2018-09-26T07:00:46.705Z,7.70
2018-09-26T07:03:14.958Z,7.80
2018-09-26T07:05:43.253Z,8.10
2018-09-26T07:08:11.593Z,8.50
2018-09-26T07:10:39.828Z,8.90
2018-09-26T07:13:08.900Z,9.40
2018-09-26T07:15:37.193Z,9.50
2018-09-26T07:18:05.534Z,9.50
2018-09-26T07:20:33.897Z,9.70
2018-09-26T07:23:02.132Z,9.60
2018-09-26T07:25:30.394Z,9.90
2018-09-26T07:27:58.767Z,10.30
2018-09-26T07:30:27.071Z,10.20
2018-09-26T07:32:55.330Z,10.30
2018-09-26T07:35:23.665Z,10.60
2018-09-26T07:37:52.253Z,11.10
2018-09-26T07:40:20.545Z,11.20
2018-09-26T07:42:48.886Z,11.40
2018-09-26T07:45:17.156Z,11.60
2018-09-26T07:47:45.498Z,11.80
2018-09-26T07:50:13.773Z,12.10
2018-09-26T07:52:42.074Z,12.50
2018-09-26T07:55:10.810Z,12.70
2018-09-26T07:57:39.105Z,12.90
2018-09-26T08:00:07.964Z,12.70
2018-09-26T08:02:36.280Z,12.20
2018-09-26T08:05:04.615Z,12.10
2018-09-26T08:07:32.894Z,12.10
2018-09-26T08:10:01.231Z,12.20
2018-09-26T08:12:29.717Z,12.40
2018-09-26T08:14:58.019Z,12.60
2018-09-26T08:17:26.272Z,12.90
2018-09-26T08:19:54.611Z,12.90
2018-09-26T08:22:23.466Z,12.70
2018-09-26T08:24:51.766Z,12.50
2018-09-26T08:27:20.007Z,12.60
2018-09-26T08:29:48.341Z,12.60
2018-09-26T08:32:16.618Z,12.80
2018-09-26T08:34:44.904Z,12.70
2018-09-26T08:37:13.585Z,12.90
2018-09-26T08:39:41.948Z,13.10
2018-09-26T08:42:10.282Z,13.00
2018-09-26T08:44:39.183Z,12.80
2018-09-26T08:47:08.833Z,12.80
2018-09-26T08:49:37.155Z,12.80
2018-09-26T08:52:05.458Z,12.90
2018-09-26T08:54:34.024Z,13.00
2018-09-26T08:57:02.482Z,13.40
2018-09-26T08:59:30.831Z,13.10
2018-09-26T09:01:59.169Z,13.50
2018-09-26T09:04:27.583Z,13.60
2018-09-26T09:06:55.935Z,13.70
2018-09-26T09:09:24.214Z,14.00
2018-09-26T09:11:52.515Z,14.00
2018-09-26T09:14:20.783Z,14.30
2018-09-26T09:16:49.142Z,14.70
2018-09-26T09:19:17.501Z,14.60
2018-09-26T09:21:45.846Z,14.80
2018-09-26T09:24:14.303Z,15.30
2018-09-26T09:29:16.579Z,15.80
2018-09-26T09:31:44.883Z,15.70
2018-09-26T09:34:13.450Z,15.90
2018-09-26T09:36:42.086Z,16.10
2018-09-26T09:39:11.178Z,16.10
2018-09-26T09:41:39.551Z,16.40
2018-09-26T09:44:08.512Z,16.40
2018-09-26T09:46:36.879Z,16.60
2018-09-26T09:49:05.416Z,16.90
2018-09-26T09:51:33.758Z,17.30
2018-09-26T09:54:02.039Z,17.40
2018-09-26T09:56:30.350Z,16.90
2018-09-26T09:58:58.626Z,16.70
2018-09-26T10:01:29.362Z,17.10
2018-09-26T10:03:59.784Z,17.40
2018-09-26T10:06:29.071Z,17.70
2018-09-26T10:08:57.823Z,18.00
2018-09-26T10:11:27.098Z,18.30
2018-09-26T10:13:56.340Z,18.20
2018-09-26T10:16:24.701Z,18.40
2018-09-26T10:18:53.094Z,18.40
2018-09-26T10:21:21.364Z,18.10
2018-09-26T10:23:49.736Z,18.20
2018-09-26T10:26:18.140Z,18.20
2018-09-26T10:28:46.319Z,17.70
2018-09-26T10:31:15.127Z,17.70
2018-09-26T10:33:43.589Z,18.00
2018-09-26T10:36:12.131Z,17.70
2018-09-26T10:38:40.453Z,17.60
2018-09-26T10:41:08.690Z,17.20
2018-09-26T10:43:37.010Z,17.40
2018-09-26T10:46:05.418Z,17.40
2018-09-26T10:48:33.900Z,17.10
2018-09-26T10:51:02.288Z,17.10
2018-09-26T10:53:30.626Z,17.30
2018-09-26T10:55:59.388Z,16.80
2018-09-26T10:58:27.748Z,16.70
2018-09-26T11:00:56.073Z,16.80
2018-09-26T11:03:24.394Z,16.30
2018-09-26T11:05:52.718Z,16.30
2018-09-26T11:08:21.214Z,16.60
2018-09-26T11:10:49.682Z,16.50
2018-09-26T11:13:17.957Z,16.60
2018-09-26T11:15:52.986Z,16.60
2018-09-26T11:18:21.562Z,16.50
2018-09-26T11:20:49.854Z,16.60
2018-09-26T11:23:18.284Z,16.60
2018-09-26T11:25:46.574Z,16.70
2018-09-26T11:28:15.057Z,16.70
2018-09-26T11:30:43.332Z,16.70
2018-09-26T11:33:11.677Z,16.70
2018-09-26T11:35:40.129Z,16.60
2018-09-26T11:38:08.511Z,16.60
2018-09-26T11:40:36.782Z,16.60
2018-09-26T11:43:05.006Z,16.30
2018-09-26T11:45:33.305Z,16.00
2018-09-26T11:48:01.588Z,15.80
2018-09-26T11:50:30.103Z,15.60
2018-09-26T11:52:58.765Z,15.70
2018-09-26T11:55:27.306Z,15.80
2018-09-26T11:57:55.601Z,15.90
2018-09-26T12:00:24.094Z,16.00
2018-09-26T12:02:52.450Z,16.20
2018-09-26T12:05:20.762Z,16.20
2018-09-26T12:07:49.276Z,16.10
2018-09-26T12:10:18.239Z,16.00
2018-09-26T12:12:46.625Z,15.70
2018-09-26T12:15:14.868Z,15.70
2018-09-26T12:17:43.140Z,15.80
2018-09-26T12:20:11.585Z,15.90
2018-09-26T12:22:40.051Z,16.10
2018-09-26T12:25:09.026Z,16.00
2018-09-26T12:27:37.359Z,16.00
2018-09-26T12:30:06.739Z,15.90
2018-09-26T12:32:35.073Z,16.00
2018-09-26T12:35:03.481Z,16.10
2018-09-26T12:37:31.942Z,16.20
2018-09-26T12:40:00.252Z,16.30
2018-09-26T12:42:28.527Z,16.40
2018-09-26T12:44:56.900Z,16.50
2018-09-26T12:47:26.007Z,16.60
2018-09-26T12:49:54.282Z,16.70
2018-09-26T12:52:22.598Z,16.80
2018-09-26T12:54:50.941Z,16.80
2018-09-26T12:57:19.209Z,16.80
2018-09-26T12:59:47.542Z,16.80
2018-09-26T13:02:15.963Z,16.80
2018-09-26T13:04:44.263Z,16.70
2018-09-26T13:07:12.576Z,16.70
2018-09-26T13:09:40.895Z,16.90
2018-09-26T13:12:09.413Z,16.90
2018-09-26T13:14:37.863Z,16.90
2018-09-26T13:17:06.132Z,17.00
2018-09-26T13:19:34.485Z,17.10
2018-09-26T13:22:02.862Z,17.30
2018-09-26T13:24:31.168Z,17.30
2018-09-26T13:26:59.569Z,17.30
2018-09-26T13:29:27.953Z,17.40
2018-09-26T13:31:56.382Z,17.30
2018-09-26T13:34:24.758Z,17.30
2018-09-26T13:36:52.948Z,17.30
2018-09-26T13:39:21.352Z,17.50
2018-09-26T13:41:49.651Z,17.60
2018-09-26T13:44:18.008Z,17.60
2018-09-26T13:46:46.264Z,17.60
2018-09-26T13:49:14.537Z,17.60
2018-09-26T13:51:42.811Z,17.60
2018-09-26T13:54:11.140Z,17.70
2018-09-26T13:56:39.474Z,17.80
2018-09-26T13:59:07.785Z,17.80
2018-09-26T14:01:36.193Z,17.90
2018-09-26T14:04:04.461Z,18.00
2018-09-26T14:06:32.670Z,17.90
2018-09-26T14:09:01.711Z,18.00
2018-09-26T14:11:30.245Z,18.00
2018-09-26T14:13:58.512Z,18.10
2018-09-26T14:16:26.797Z,18.10
2018-09-26T14:18:55.058Z,18.20
2018-09-26T14:21:34.044Z,18.20
2018-09-26T14:24:09.125Z,18.20
2018-09-26T14:26:37.805Z,18.30
2018-09-26T14:29:06.352Z,18.20
2018-09-26T14:31:34.684Z,18.10
2018-09-26T14:34:02.965Z,18.20
2018-09-26T14:36:31.334Z,18.10
2018-09-26T14:38:59.751Z,18.10
2018-09-26T14:41:28.594Z,18.20
2018-09-26T14:43:57.325Z,18.20
2018-09-26T14:46:25.691Z,18.20
2018-09-26T14:48:54.031Z,18.10
2018-09-26T14:51:22.461Z,18.10
2018-09-26T14:53:50.824Z,18.00
2018-09-26T14:56:19.119Z,18.00
2018-09-26T14:58:47.475Z,18.00
2018-09-26T15:01:15.938Z,18.00
2018-09-26T15:03:47.988Z,18.00
2018-09-26T15:06:16.435Z,18.10
2018-09-26T15:08:45.103Z,18.00
2018-09-26T15:11:13.517Z,18.00
2018-09-26T15:13:42.066Z,18.00
2018-09-26T15:16:11.151Z,18.00
2018-09-26T15:18:39.969Z,18.00
2018-09-26T15:23:52.443Z,17.90
2018-09-26T15:26:21.482Z,17.80
2018-09-26T15:28:50.261Z,17.70
2018-09-26T15:31:18.822Z,17.80
2018-09-26T15:33:48.344Z,17.80
2018-09-26T15:36:17.687Z,17.90
2018-09-26T15:38:49.618Z,17.90
2018-09-26T15:41:19.702Z,18.00
2018-09-26T15:43:52.957Z,17.90
2018-09-26T15:46:21.751Z,17.90
2018-09-26T15:48:50.523Z,17.90
2018-09-26T15:51:23.566Z,17.90
2018-09-26T15:53:51.939Z,17.90
2018-09-26T15:56:20.547Z,17.90
2018-09-26T15:58:48.995Z,17.80
2018-09-26T16:01:17.525Z,17.80
2018-09-26T16:04:02.608Z,17.80
2018-09-26T16:06:31.079Z,17.70
2018-09-26T16:08:59.629Z,17.60
2018-09-26T16:11:27.951Z,17.60
2018-09-26T16:13:56.243Z,17.40
2018-09-26T16:16:24.735Z,17.40
2018-09-26T16:18:52.929Z,17.30
2018-09-26T16:21:21.309Z,17.30
2018-09-26T16:23:49.615Z,17.30
2018-09-26T16:26:18.084Z,17.20
2018-09-26T16:28:46.378Z,17.20
2018-09-26T16:31:14.833Z,17.00
2018-09-26T16:33:43.090Z,16.90
2018-09-26T16:36:11.480Z,16.70
2018-09-26T16:38:39.885Z,16.70
2018-09-26T16:41:08.316Z,16.70
2018-09-26T16:43:36.725Z,16.60
2018-09-26T16:46:05.143Z,16.50
2018-09-26T16:48:33.512Z,16.30
2018-09-26T16:51:01.788Z,16.20
2018-09-26T16:53:30.231Z,16.20
2018-09-26T16:55:58.989Z,16.20
2018-09-26T16:58:27.333Z,16.20
2018-09-26T17:00:56.079Z,16.10
2018-09-26T17:05:59.037Z,16.00
2018-09-26T17:08:27.333Z,16.00
2018-09-26T17:10:55.754Z,15.90
2018-09-26T17:13:24.103Z,15.80
2018-09-26T17:15:52.380Z,15.80
2018-09-26T17:18:20.705Z,15.80
2018-09-26T17:20:48.942Z,15.70
2018-09-26T17:23:17.303Z,15.70
2018-09-26T17:25:45.695Z,15.60
2018-09-26T17:28:14.056Z,15.60
2018-09-26T17:30:42.338Z,15.50
2018-09-26T17:33:10.621Z,15.50
2018-09-26T17:35:39.731Z,15.40
2018-09-26T17:38:08.901Z,15.30
2018-09-26T17:40:37.197Z,15.20
2018-09-26T17:43:06.516Z,15.20
2018-09-26T17:45:34.944Z,15.10
2018-09-26T17:48:03.478Z,15.00
2018-09-26T17:50:31.793Z,15.00
2018-09-26T17:53:00.287Z,14.90
2018-09-26T17:55:28.598Z,14.90
2018-09-26T17:57:57.263Z,14.80
2018-09-26T18:00:25.683Z,14.80
2018-09-26T18:02:55.126Z,14.70
2018-09-26T18:05:23.556Z,14.70
2018-09-26T18:07:52.021Z,14.60
2018-09-26T18:10:20.407Z,14.50
2018-09-26T18:12:48.940Z,14.50
2018-09-26T18:15:17.318Z,14.50
2018-09-26T18:17:45.699Z,14.40
2018-09-26T18:20:14.315Z,14.40
2018-09-26T18:22:42.711Z,14.30
2018-09-26T18:25:11.322Z,14.20
2018-09-26T18:27:39.727Z,14.20
2018-09-26T18:30:08.005Z,14.10
2018-09-26T18:32:36.504Z,14.10
2018-09-26T18:35:04.862Z,14.00
2018-09-26T18:37:33.270Z,13.90
2018-09-26T18:40:01.849Z,13.90
2018-09-26T18:42:30.144Z,13.80
2018-09-26T18:44:58.835Z,13.80
2018-09-26T18:47:27.089Z,13.70
2018-09-26T18:49:55.420Z,13.60
2018-09-26T18:52:23.987Z,13.50
2018-09-26T18:54:52.303Z,13.50
2018-09-26T18:57:21.403Z,13.40
2018-09-26T18:59:49.649Z,13.40
2018-09-26T19:02:18.053Z,13.20
2018-09-26T19:04:46.591Z,13.10
2018-09-26T19:07:15.040Z,13.10
2018-09-26T19:09:43.426Z,13.10
2018-09-26T19:12:11.776Z,13.10
2018-09-26T19:14:40.094Z,13.00
2018-09-26T19:17:08.374Z,12.90
2018-09-26T19:19:36.650Z,12.80
2018-09-26T19:22:05.067Z,12.80
2018-09-26T19:24:33.458Z,12.80
2018-09-26T19:27:01.770Z,12.70
2018-09-26T19:29:30.541Z,12.70
2018-09-26T19:31:58.993Z,12.70
2018-09-26T19:34:27.237Z,12.70
2018-09-26T19:36:55.534Z,12.60
2018-09-26T19:39:23.775Z,12.50
2018-09-26T19:41:52.135Z,12.50
2018-09-26T19:44:20.867Z,12.40
2018-09-26T19:46:49.783Z,12.40
2018-09-26T19:49:18.231Z,12.40
2018-09-26T19:51:46.517Z,12.40
2018-09-26T19:54:14.854Z,12.30
2018-09-26T19:56:43.245Z,12.30
2018-09-26T19:59:11.510Z,12.30
2018-09-26T20:01:39.832Z,12.20
2018-09-26T20:04:08.655Z,12.10
2018-09-26T20:06:36.967Z,12.10
2018-09-26T20:09:08.591Z,12.10
2018-09-26T20:11:36.989Z,12.10
2018-09-26T20:14:05.338Z,12.10
2018-09-26T20:16:33.785Z,12.10
2018-09-26T20:19:02.162Z,12.00
2018-09-26T20:21:30.373Z,12.00
2018-09-26T20:23:58.637Z,11.90
2018-09-26T20:26:27.147Z,11.90
2018-09-26T20:28:55.723Z,11.80
2018-09-26T20:31:23.995Z,11.70
2018-09-26T20:33:52.250Z,11.70
2018-09-26T20:36:20.614Z,11.60
2018-09-26T20:38:49.191Z,11.60
2018-09-26T20:41:17.458Z,11.60
2018-09-26T20:43:45.871Z,11.60
2018-09-26T20:46:14.145Z,11.60
2018-09-26T20:48:42.730Z,11.50
2018-09-26T20:51:11.022Z,11.50
2018-09-26T20:53:39.343Z,11.50
2018-09-26T20:56:07.711Z,11.50
2018-09-26T20:58:36.531Z,11.50
2018-09-26T21:01:04.796Z,11.50
2018-09-26T21:03:33.118Z,11.50
2018-09-26T21:06:01.439Z,11.50
2018-09-26T21:08:29.685Z,11.50
2018-09-26T21:10:58.119Z,11.40
2018-09-26T21:13:26.361Z,11.40
2018-09-26T21:15:54.738Z,11.40
2018-09-26T21:18:23.031Z,11.40
2018-09-26T21:20:51.461Z,11.40
2018-09-26T21:23:19.687Z,11.40
2018-09-26T21:25:48.546Z,11.40
2018-09-26T21:28:17.227Z,11.40
2018-09-26T21:30:45.469Z,11.30
2018-09-26T21:33:14.058Z,11.30
2018-09-26T21:35:42.250Z,11.30
2018-09-26T21:38:10.514Z,11.20
2018-09-26T21:40:38.833Z,11.20
2018-09-26T21:43:07.199Z,11.10
2018-09-26T21:45:35.656Z,11.10
2018-09-26T21:48:04.848Z,11.00
2018-09-26T21:50:33.241Z,11.00
2018-09-26T21:53:01.787Z,10.90
2018-09-26T21:55:30.150Z,10.80
2018-09-26T21:57:58.414Z,10.80
2018-09-26T22:00:27.034Z,10.70
2018-09-26T22:02:55.383Z,10.70
2018-09-26T22:05:23.798Z,10.60
2018-09-26T22:07:52.173Z,10.50
2018-09-26T22:10:20.482Z,10.40
2018-09-26T22:12:48.969Z,10.30
2018-09-26T22:15:23.073Z,10.30
2018-09-26T22:17:52.266Z,10.20
2018-09-26T22:20:20.503Z,10.20
2018-09-26T22:22:49.316Z,10.20
2018-09-26T22:25:17.772Z,10.20
2018-09-26T22:27:46.437Z,10.10
2018-09-26T22:30:14.678Z,10.10
2018-09-26T22:32:43.095Z,10.10
2018-09-26T22:35:11.354Z,10.10
2018-09-26T22:37:39.712Z,10.10
2018-09-26T22:40:07.990Z,10.10
2018-09-26T22:42:36.470Z,10.20
2018-09-26T22:45:05.006Z,10.20
2018-09-26T22:47:33.335Z,10.20
2018-09-26T22:50:01.659Z,10.20
2018-09-26T22:52:29.899Z,10.30
2018-09-26T22:54:58.270Z,10.30
2018-09-26T22:57:26.554Z,10.20
2018-09-26T22:59:55.040Z,10.30
2018-09-26T23:02:23.310Z,10.30
2018-09-26T23:04:51.990Z,10.30
2018-09-26T23:07:20.262Z,10.30
2018-09-26T23:09:48.842Z,10.20
2018-09-26T23:12:17.108Z,10.20
2018-09-26T23:14:45.464Z,10.20
2018-09-26T23:17:13.694Z,10.30
2018-09-26T23:19:42.255Z,10.30
2018-09-26T23:22:10.529Z,10.30
2018-09-26T23:24:39.014Z,10.30
2018-09-26T23:27:07.416Z,10.30
2018-09-26T23:29:35.858Z,10.30
2018-09-26T23:32:04.195Z,10.30
2018-09-26T23:34:32.497Z,10.30
2018-09-26T23:37:01.070Z,10.30
2018-09-26T23:39:29.347Z,10.30
2018-09-26T23:41:57.763Z,10.30
2018-09-26T23:44:26.051Z,10.30
2018-09-26T23:46:54.354Z,10.30
2018-09-26T23:49:22.606Z,10.30
2018-09-26T23:51:50.933Z,10.30
2018-09-26T23:54:20.073Z,10.30
2018-09-26T23:56:48.462Z,10.40
2018-09-26T23:59:16.788Z,10.40
